Time;durP1;ratioP1;P1;durP2;ratioP2;P2;SDS_P1;SDS_P2;PMS_P1;PMS_P2;Temp;Humidity;BMP_temperature;BMP_pressure;BME280_temperature;BME280_humidity;BME280_pressure;Samples;Min_cycle;Max_cycle;Signal;HPM_P1;HPM_P2
2021/06/04 00:00:32;;;;;;;5.63;5.13;;;18.20;99.90;;;;;;4989160;28;20184;-60
2021/06/04 00:03:06;;;;;;;5.93;4.97;;;18.20;99.90;;;;;;4989461;28;20179;-61
2021/06/04 00:05:35;;;;;;;7.43;5.30;;;18.20;99.90;;;;;;4989144;28;20217;-60
2021/06/04 00:08:01;;;;;;;5.03;4.63;;;18.10;99.90;;;;;;4989111;28;20577;-60
2021/06/04 00:10:30;;;;;;;4.95;4.50;;;18.10;99.90;;;;;;4988993;28;20231;-63
2021/06/04 00:13:26;;;;;;;7.20;5.20;;;17.90;99.90;;;;;;4989185;28;20282;-62
2021/06/04 00:16:03;;;;;;;5.00;4.60;;;17.70;99.90;;;;;;5001767;28;20246;-62
2021/06/04 00:18:31;;;;;;;5.57;5.10;;;17.90;99.90;;;;;;4983557;28;20203;-62
2021/06/04 00:20:57;;;;;;;5.25;4.85;;;17.90;99.90;;;;;;4989416;28;20187;-61
2021/06/04 00:23:23;;;;;;;5.20;4.80;;;17.90;99.90;;;;;;4989469;28;20191;-62
2021/06/04 00:25:49;;;;;;;4.90;4.50;;;18.00;99.90;;;;;;4988992;28;20704;-61
2021/06/04 00:28:16;;;;;;;5.90;5.37;;;17.90;99.90;;;;;;4986447;28;20184;-61
2021/06/04 00:30:41;;;;;;;5.32;4.82;;;17.90;99.90;;;;;;4988906;28;20571;-61
2021/06/04 00:33:08;;;;;;;5.27;4.77;;;17.90;99.90;;;;;;4989053;28;20438;-61
2021/06/04 00:35:36;;;;;;;6.00;5.15;;;17.90;99.90;;;;;;4988372;28;20245;-61
2021/06/04 00:38:03;;;;;;;5.47;4.97;;;17.70;99.90;;;;;;4988919;28;20215;-61
2021/06/04 00:40:33;;;;;;;5.18;4.60;;;17.80;99.90;;;;;;4988914;28;20203;-61
2021/06/04 00:42:58;;;;;;;5.63;5.18;;;17.70;99.90;;;;;;4989310;28;20274;-61
2021/06/04 00:45:30;;;;;;;5.07;4.60;;;17.70;99.90;;;;;;4987963;28;20294;-61
2021/06/04 00:47:56;;;;;;;4.80;4.40;;;17.70;99.90;;;;;;4982739;28;20557;-60
2021/06/04 00:50:38;;;;;;;5.57;5.18;;;17.60;99.90;;;;;;4988802;28;20218;-61
2021/06/04 00:53:05;;;;;;;5.15;4.75;;;17.60;99.90;;;;;;4981889;28;20184;-61
2021/06/04 00:55:32;;;;;;;5.05;4.55;;;17.60;99.90;;;;;;4988451;28;20207;-61
2021/06/04 00:57:57;;;;;;;5.07;4.68;;;17.60;99.90;;;;;;4989012;28;20211;-61
2021/06/04 01:00:52;;;;;;;4.77;4.37;;;17.40;99.90;;;;;;4988328;28;20199;-60
2021/06/04 01:03:21;;;;;;;4.95;4.55;;;17.50;99.90;;;;;;5004132;28;20442;-60
2021/06/04 01:05:47;;;;;;;4.82;4.53;;;17.30;99.90;;;;;;4992419;28;20680;-60
2021/06/04 01:08:27;;;;;;;5.23;4.73;;;17.40;99.90;;;;;;4992375;28;20199;-61
2021/06/04 01:11:13;;;;;;;5.25;4.72;;;17.40;99.90;;;;;;4988942;28;20447;-61
2021/06/04 01:14:02;;;;;;;5.35;4.53;;;17.60;99.90;;;;;;4991515;28;20188;-60
2021/06/04 01:16:43;;;;;;;5.15;4.70;;;17.50;99.90;;;;;;4991887;28;20715;-60
2021/06/04 01:19:25;;;;;;;4.90;4.50;;;17.20;99.90;;;;;;4992154;28;20199;-60
2021/06/04 01:21:57;;;;;;;5.25;4.85;;;17.20;99.90;;;;;;4992276;28;20193;-60
2021/06/04 01:25:00;;;;;;;5.53;5.13;;;17.20;99.90;;;;;;4986822;28;20183;-60
2021/06/04 01:27:32;;;;;;;4.82;4.45;;;17.30;99.90;;;;;;4993142;28;20226;-61
2021/06/04 01:30:24;;;;;;;5.78;5.28;;;17.30;99.90;;;;;;4991364;28;20562;-60
2021/06/04 01:32:54;;;;;;;5.10;4.70;;;17.30;99.90;;;;;;4983811;28;20199;-61
2021/06/04 01:35:29;;;;;;;5.45;5.05;;;17.30;99.90;;;;;;4991852;28;20239;-60
2021/06/04 01:37:56;;;;;;;5.28;4.80;;;17.50;99.90;;;;;;5004631;28;20684;-60
2021/06/04 01:40:45;;;;;;;4.95;4.55;;;17.30;99.90;;;;;;4991628;28;20266;-61
2021/06/04 01:43:20;;;;;;;5.10;4.70;;;17.30;99.90;;;;;;4992434;28;20223;-60
2021/06/04 01:45:53;;;;;;;6.10;4.55;;;17.30;99.90;;;;;;4992651;28;20598;-60
2021/06/04 01:48:26;;;;;;;6.28;5.35;;;17.30;99.90;;;;;;4990335;28;20199;-59
2021/06/04 01:51:13;;;;;;;4.65;4.25;;;17.30;99.90;;;;;;4987424;28;20547;-59
2021/06/04 01:53:45;;;;;;;4.65;4.30;;;17.30;99.90;;;;;;4988572;28;20306;-59
2021/06/04 01:56:21;;;;;;;5.07;4.68;;;17.40;99.90;;;;;;4991342;28;20713;-58
2021/06/04 01:59:00;;;;;;;4.45;4.05;;;17.40;99.90;;;;;;4991365;28;20207;-59
2021/06/04 02:01:42;;;;;;;4.80;4.50;;;17.30;99.90;;;;;;4991330;28;20623;-60
2021/06/04 02:04:11;;;;;;;4.95;4.55;;;17.30;99.90;;;;;;4986769;28;20549;-60
2021/06/04 02:06:36;;;;;;;5.20;4.20;;;17.10;99.90;;;;;;4991144;28;20212;-60
2021/06/04 02:09:07;;;;;;;5.23;4.83;;;17.10;99.90;;;;;;4991685;28;20596;-59
2021/06/04 02:11:33;;;;;;;5.18;4.70;;;17.00;99.90;;;;;;4991319;28;20195;-59
2021/06/04 02:14:03;;;;;;;5.45;5.05;;;17.20;99.90;;;;;;4990366;28;20207;-58
2021/06/04 02:16:33;;;;;;;6.03;5.10;;;17.10;99.90;;;;;;4991054;28;20696;-60
2021/06/04 02:19:14;;;;;;;5.53;5.03;;;16.80;99.90;;;;;;4990816;28;20256;-59
2021/06/04 02:22:09;;;;;;;4.90;4.50;;;17.10;99.90;;;;;;4991018;28;20187;-59
2021/06/04 02:24:57;;;;;;;4.25;3.95;;;17.20;99.90;;;;;;4958864;28;20196;-59
2021/06/04 02:27:41;;;;;;;5.15;4.65;;;17.00;99.90;;;;;;4991258;28;20184;-59
2021/06/04 02:30:42;;;;;;;6.80;4.55;;;17.00;99.90;;;;;;4990830;28;20588;-59
2021/06/04 02:33:09;;;;;;;4.97;4.57;;;17.00;99.90;;;;;;4989413;28;20241;-58
2021/06/04 02:35:44;;;;;;;5.68;5.18;;;17.00;99.90;;;;;;4990665;28;20208;-60
2021/06/04 02:38:29;;;;;;;5.38;4.88;;;17.10;99.90;;;;;;4990519;28;20206;-59
2021/06/04 02:41:04;;;;;;;4.85;4.45;;;17.00;99.90;;;;;;4990452;28;20355;-59
2021/06/04 02:43:44;;;;;;;5.20;4.78;;;16.70;99.90;;;;;;4990784;28;20384;-59
2021/06/04 02:46:47;;;;;;;5.30;4.90;;;16.70;99.90;;;;;;4990618;28;20493;-59
2021/06/04 02:49:16;;;;;;;5.85;4.80;;;16.80;99.90;;;;;;4971164;28;20196;-59
2021/06/04 02:52:08;;;;;;;5.10;4.70;;;16.80;99.90;;;;;;4990440;28;20270;-59
2021/06/04 02:54:38;;;;;;;5.30;4.90;;;16.90;99.90;;;;;;4984157;28;20656;-58
2021/06/04 02:57:08;;;;;;;4.50;4.20;;;16.70;99.90;;;;;;4989822;28;20215;-59
2021/06/04 02:59:37;;;;;;;5.68;5.28;;;16.90;99.90;;;;;;4990297;28;20680;-59
2021/06/04 03:02:03;;;;;;;5.10;4.70;;;16.60;99.90;;;;;;4990556;28;20274;-59
2021/06/04 03:04:34;;;;;;;5.27;4.87;;;16.80;99.90;;;;;;4990169;28;20334;-59
2021/06/04 03:07:05;;;;;;;6.00;5.50;;;16.60;99.90;;;;;;4983493;28;20540;-59
2021/06/04 03:09:35;;;;;;;6.03;5.53;;;16.80;99.90;;;;;;4990553;28;20183;-58
2021/06/04 03:12:05;;;;;;;5.60;5.20;;;16.70;99.90;;;;;;4989799;28;20192;-58
2021/06/04 03:14:30;;;;;;;5.90;5.40;;;16.60;99.90;;;;;;4989414;28;20190;-60
2021/06/04 03:17:00;;;;;;;7.10;6.37;;;16.60;99.90;;;;;;4990072;28;20653;-61
2021/06/04 03:19:26;;;;;;;6.63;6.05;;;16.70;99.90;;;;;;4989618;28;20183;-62
2021/06/04 03:21:54;;;;;;;6.17;5.60;;;16.70;99.90;;;;;;4990096;28;20184;-60
2021/06/04 03:24:31;;;;;;;6.60;6.03;;;16.70;99.90;;;;;;4989533;28;20454;-60
2021/06/04 03:26:58;;;;;;;6.82;6.30;;;16.90;99.90;;;;;;4983231;28;20202;-59
2021/06/04 03:29:24;;;;;;;5.40;4.90;;;16.80;99.90;;;;;;4989424;28;20188;-60
2021/06/04 03:31:54;;;;;;;6.50;5.90;;;16.80;99.90;;;;;;4989311;28;20226;-61
2021/06/04 03:34:20;;;;;;;6.25;5.70;;;16.80;99.90;;;;;;4991614;28;20188;-60
2021/06/04 03:36:48;;;;;;;7.15;6.55;;;16.90;99.90;;;;;;4990206;28;20262;-60
2021/06/04 03:39:18;;;;;;;6.60;6.00;;;16.70;99.90;;;;;;4989471;28;20266;-62
2021/06/04 03:41:47;;;;;;;6.90;6.30;;;16.70;99.90;;;;;;4982417;28;20226;-61
2021/06/04 03:44:15;;;;;;;7.82;6.00;;;16.80;99.90;;;;;;4988563;28;20246;-60
2021/06/04 03:46:42;;;;;;;6.95;6.25;;;16.90;99.90;;;;;;4984432;28;20211;-60
2021/06/04 03:49:14;;;;;;;6.53;5.93;;;16.90;99.90;;;;;;4985921;28;20198;-62
2021/06/04 03:51:40;;;;;;;6.60;6.10;;;16.80;99.90;;;;;;4986653;28;20283;-61
2021/06/04 03:54:11;;;;;;;6.78;6.25;;;16.60;99.90;;;;;;4989036;28;20188;-62
2021/06/04 03:56:37;;;;;;;6.63;6.13;;;17.00;99.90;;;;;;4985023;28;21476;-60
2021/06/04 03:59:06;;;;;;;8.88;6.70;;;16.80;99.90;;;;;;4988681;28;20253;-61
2021/06/04 04:01:41;;;;;;;7.55;6.88;;;16.90;99.90;;;;;;4988757;28;20275;-60
2021/06/04 04:04:07;;;;;;;6.60;6.00;;;17.00;99.90;;;;;;4989155;28;20221;-60
2021/06/04 04:06:33;;;;;;;8.05;7.10;;;17.10;99.90;;;;;;4988980;28;20243;-61
2021/06/04 04:09:00;;;;;;;6.47;5.88;;;17.20;99.90;;;;;;4985276;28;20191;-60
2021/06/04 04:11:25;;;;;;;7.43;6.72;;;17.10;99.90;;;;;;4989119;28;20184;-61
2021/06/04 04:13:51;;;;;;;7.07;6.37;;;17.00;99.90;;;;;;4987129;28;20699;-61
2021/06/04 04:16:17;;;;;;;7.50;6.90;;;17.40;99.90;;;;;;4986038;28;20207;-61
2021/06/04 04:18:43;;;;;;;6.60;6.10;;;17.40;99.90;;;;;;4987161;28;20574;-61
2021/06/04 04:21:11;;;;;;;8.00;7.30;;;17.10;99.90;;;;;;4989209;28;20187;-61
2021/06/04 04:23:46;;;;;;;6.93;6.32;;;17.40;99.90;;;;;;4988099;28;20489;-62
2021/06/04 04:26:15;;;;;;;6.50;5.90;;;17.50;99.90;;;;;;4990173;28;20210;-61
2021/06/04 04:28:46;;;;;;;7.15;6.45;;;17.60;99.90;;;;;;4989173;28;20199;-62
2021/06/04 04:31:15;;;;;;;6.50;6.00;;;17.70;99.90;;;;;;4987825;28;20918;-63
2021/06/04 04:33:41;;;;;;;6.82;6.22;;;18.00;99.90;;;;;;4987478;28;20234;-62
2021/06/04 04:36:09;;;;;;;6.20;5.70;;;18.30;99.90;;;;;;4987452;28;20234;-61
2021/06/04 04:38:34;;;;;;;6.70;6.10;;;18.50;99.90;;;;;;4985207;28;20225;-63
2021/06/04 04:41:02;;;;;;;6.83;6.17;;;18.60;99.90;;;;;;4990025;28;20187;-63
2021/06/04 04:43:30;;;;;;;6.82;6.30;;;18.60;99.90;;;;;;4982272;28;20992;-62
2021/06/04 04:45:56;;;;;;;5.95;5.35;;;18.70;99.90;;;;;;4987344;28;20219;-60
2021/06/04 04:48:23;;;;;;;6.20;5.70;;;18.70;99.90;;;;;;4985527;28;20211;-61
2021/06/04 04:50:49;;;;;;;6.28;5.78;;;18.70;99.90;;;;;;4985894;28;20557;-63
2021/06/04 04:53:15;;;;;;;6.88;6.28;;;18.70;99.90;;;;;;4982835;28;20626;-62
2021/06/04 04:55:41;;;;;;;6.22;5.63;;;18.70;99.90;;;;;;4986897;28;20693;-61
2021/06/04 04:58:08;;;;;;;5.82;5.43;;;18.70;99.90;;;;;;4983352;28;20211;-62
2021/06/04 05:00:35;;;;;;;6.05;5.55;;;18.80;99.90;;;;;;4998382;28;20184;-62
2021/06/04 05:03:01;;;;;;;6.35;5.85;;;18.70;99.90;;;;;;4985473;28;20239;-62
2021/06/04 05:05:29;;;;;;;6.20;5.70;;;18.80;99.90;;;;;;5001001;28;20208;-63
2021/06/04 05:07:55;;;;;;;5.63;5.22;;;18.90;99.90;;;;;;4985415;28;20471;-64
2021/06/04 05:10:21;;;;;;;7.63;6.83;;;19.00;99.90;;;;;;4987077;28;20215;-62
2021/06/04 05:12:47;;;;;;;7.17;6.50;;;19.00;99.90;;;;;;4987558;28;20501;-63
2021/06/04 05:15:17;;;;;;;6.60;6.00;;;19.00;99.90;;;;;;4985023;28;20513;-63
2021/06/04 05:17:43;;;;;;;6.88;6.20;;;19.10;99.90;;;;;;4987220;28;20298;-64
2021/06/04 05:20:10;;;;;;;7.05;6.50;;;19.30;99.90;;;;;;4984645;28;20191;-62
2021/06/04 05:22:36;;;;;;;6.45;5.85;;;19.40;99.90;;;;;;4982982;28;20184;-64
2021/06/04 05:25:04;;;;;;;7.80;7.00;;;19.60;99.90;;;;;;4981002;28;20186;-63
2021/06/04 05:27:29;;;;;;;7.10;6.45;;;19.70;99.90;;;;;;5002602;28;20673;-62
2021/06/04 05:29:55;;;;;;;6.33;5.70;;;19.90;99.90;;;;;;4988045;28;20267;-64
2021/06/04 05:32:21;;;;;;;5.60;5.20;;;20.00;99.90;;;;;;4985160;28;20206;-64
2021/06/04 05:34:48;;;;;;;5.70;5.20;;;20.10;99.90;;;;;;4987036;28;20677;-63
2021/06/04 05:37:14;;;;;;;5.65;5.18;;;20.30;99.90;;;;;;4983071;28;20200;-63
2021/06/04 05:39:40;;;;;;;5.90;5.40;;;20.30;99.90;;;;;;4984673;28;20203;-63
2021/06/04 05:42:06;;;;;;;6.10;5.60;;;20.50;99.90;;;;;;4989273;28;20186;-63
2021/06/04 05:44:33;;;;;;;6.90;6.30;;;20.70;99.90;;;;;;4987905;28;20188;-63
2021/06/04 05:47:02;;;;;;;6.40;5.90;;;20.90;99.90;;;;;;4987205;28;20207;-62
2021/06/04 05:49:29;;;;;;;7.15;6.45;;;21.00;99.90;;;;;;4989777;28;20187;-63
2021/06/04 05:51:56;;;;;;;6.25;5.75;;;21.20;99.90;;;;;;4981386;28;20198;-63
2021/06/04 05:54:23;;;;;;;6.05;5.60;;;21.30;99.90;;;;;;4986849;28;20186;-64
2021/06/04 05:56:48;;;;;;;5.60;5.20;;;21.50;99.90;;;;;;4990570;28;20298;-63
2021/06/04 05:59:15;;;;;;;6.70;6.10;;;21.70;99.90;;;;;;4988238;28;20305;-63
2021/06/04 06:01:43;;;;;;;5.27;4.87;;;22.00;99.90;;;;;;4986504;28;20196;-57
2021/06/04 06:04:08;;;;;;;6.10;5.50;;;22.30;99.90;;;;;;4989740;28;20463;-57
2021/06/04 06:06:34;;;;;;;4.73;4.30;;;22.50;99.90;;;;;;4990007;28;20885;-57
2021/06/04 06:09:00;;;;;;;5.30;4.90;;;22.70;99.90;;;;;;4981520;28;20188;-56
2021/06/04 06:11:27;;;;;;;4.80;4.50;;;22.80;99.90;;;;;;4987438;28;20449;-57
2021/06/04 06:13:56;;;;;;;6.00;5.50;;;23.10;99.90;;;;;;4990139;28;20439;-57
2021/06/04 06:16:22;;;;;;;6.57;5.43;;;23.30;99.90;;;;;;4989307;28;21042;-57
2021/06/04 06:18:49;;;;;;;4.70;4.30;;;23.00;99.90;;;;;;4988103;28;20471;-56
2021/06/04 06:21:14;;;;;;;10.33;7.03;;;22.90;99.90;;;;;;4983920;28;20446;-56
2021/06/04 06:23:40;;;;;;;5.37;4.97;;;23.30;99.90;;;;;;4988134;28;20500;-57
2021/06/04 06:26:10;;;;;;;7.53;6.93;;;23.40;99.90;;;;;;4988686;28;20294;-57
2021/06/04 06:28:39;;;;;;;8.83;5.37;;;23.70;99.90;;;;;;4990510;28;20840;-57
2021/06/04 06:31:15;;;;;;;6.10;5.60;;;23.80;99.90;;;;;;4987486;28;20446;-58
2021/06/04 06:33:42;;;;;;;7.07;6.50;;;23.90;99.90;;;;;;4988427;28;20450;-59
2021/06/04 06:36:11;;;;;;;6.63;6.00;;;23.90;99.90;;;;;;4988422;28;20478;-58
2021/06/04 06:38:38;;;;;;;6.77;6.00;;;24.00;99.90;;;;;;4989614;28;20908;-60
2021/06/04 06:41:07;;;;;;;8.73;6.17;;;24.00;99.90;;;;;;4989762;28;20869;-59
2021/06/04 06:43:35;;;;;;;5.43;5.03;;;23.90;99.80;;;;;;4989688;28;20437;-59
2021/06/04 06:46:02;;;;;;;6.80;5.70;;;23.80;99.60;;;;;;4988620;28;20469;-58
2021/06/04 06:48:28;;;;;;;6.80;6.20;;;23.80;99.80;;;;;;4990351;28;20465;-59
2021/06/04 06:50:54;;;;;;;5.50;5.00;;;23.70;99.80;;;;;;4986301;28;20955;-58
2021/06/04 06:53:22;;;;;;;6.33;5.77;;;23.70;99.60;;;;;;4988142;28;20191;-60
2021/06/04 06:55:56;;;;;;;5.40;4.93;;;23.60;99.80;;;;;;4989871;28;20553;-58
2021/06/04 06:58:23;;;;;;;6.10;5.60;;;23.60;99.80;;;;;;4987565;28;20462;-59
2021/06/04 07:00:50;;;;;;;5.33;4.87;;;23.60;99.60;;;;;;4987352;28;20442;-59
2021/06/04 07:03:23;;;;;;;4.80;4.50;;;23.60;99.30;;;;;;4989621;28;20835;-59
2021/06/04 07:05:51;;;;;;;5.10;4.60;;;23.60;99.20;;;;;;4984504;28;20478;-59
2021/06/04 07:08:16;;;;;;;5.00;4.47;;;23.60;98.90;;;;;;4988513;28;20453;-59
2021/06/04 07:10:42;;;;;;;6.00;5.40;;;23.60;98.60;;;;;;4986484;28;20446;-58
2021/06/04 07:13:11;;;;;;;4.43;4.03;;;23.50;98.70;;;;;;4988801;28;20330;-59
2021/06/04 07:15:39;;;;;;;5.50;5.10;;;23.60;98.80;;;;;;4988520;28;20286;-58
2021/06/04 07:18:07;;;;;;;5.50;5.00;;;23.60;98.80;;;;;;4987623;28;20478;-59
2021/06/04 07:20:35;;;;;;;4.37;3.93;;;23.80;98.90;;;;;;4989140;28;20446;-59
2021/06/04 07:23:02;;;;;;;5.30;4.90;;;23.90;98.90;;;;;;4988941;28;20431;-59
2021/06/04 07:25:32;;;;;;;5.97;5.43;;;24.10;98.60;;;;;;5002046;28;21065;-60
2021/06/04 07:27:58;;;;;;;4.90;4.50;;;24.10;98.50;;;;;;4987406;28;20443;-59
2021/06/04 07:30:31;;;;;;;5.30;4.90;;;24.40;98.30;;;;;;4981968;28;20980;-59
2021/06/04 07:33:01;;;;;;;5.10;4.50;;;24.80;98.00;;;;;;4986887;28;20555;-59
2021/06/04 07:35:30;;;;;;;5.67;5.10;;;25.40;97.20;;;;;;4987114;28;20568;-59
2021/06/04 07:37:56;;;;;;;4.80;4.40;;;26.40;94.90;;;;;;4988225;28;20762;-59
2021/06/04 07:40:26;;;;;;;4.63;4.20;;;27.30;93.40;;;;;;4980312;28;20464;-60
2021/06/04 07:42:53;;;;;;;6.80;4.50;;;29.20;89.70;;;;;;4984765;28;20882;-60
2021/06/04 07:45:22;;;;;;;4.63;4.33;;;31.60;78.40;;;;;;4983724;28;20951;-59
2021/06/04 07:47:48;;;;;;;5.50;4.80;;;32.90;71.30;;;;;;4983037;28;20446;-59
2021/06/04 07:50:14;;;;;;;7.70;4.40;;;34.70;64.10;;;;;;4981953;28;20453;-58
2021/06/04 07:52:40;;;;;;;10.50;5.13;;;34.30;60.60;;;;;;4983276;28;20193;-60
2021/06/04 07:55:09;;;;;;;6.27;5.67;;;35.90;58.00;;;;;;4984262;28;20434;-60
2021/06/04 07:57:34;;;;;;;5.67;4.77;;;35.60;55.30;;;;;;4982311;28;20470;-59
2021/06/04 08:00:00;;;;;;;4.80;4.33;;;36.60;54.70;;;;;;4978633;28;20509;-59
2021/06/04 08:02:26;;;;;;;4.77;4.33;;;37.90;51.30;;;;;;4981674;28;20199;-60
2021/06/04 08:04:52;;;;;;;5.40;4.60;;;38.40;49.70;;;;;;4981870;28;20191;-59
2021/06/04 08:07:18;;;;;;;6.17;4.63;;;39.70;47.20;;;;;;4985951;28;20590;-60
2021/06/04 08:09:44;;;;;;;4.13;3.83;;;40.10;45.90;;;;;;4988053;28;20439;-60
2021/06/04 08:12:12;;;;;;;4.20;3.80;;;41.40;42.90;;;;;;4987419;28;20445;-60
2021/06/04 08:14:39;;;;;;;4.07;3.67;;;41.60;41.20;;;;;;4985484;28;20278;-60
2021/06/04 08:17:06;;;;;;;4.10;3.70;;;41.50;41.20;;;;;;4988552;28;20814;-60
2021/06/04 08:19:33;;;;;;;4.00;3.63;;;41.60;41.00;;;;;;4984632;28;20461;-60
2021/06/04 08:22:00;;;;;;;4.10;3.70;;;41.40;40.60;;;;;;4983485;28;20489;-59
2021/06/04 08:24:29;;;;;;;5.13;4.10;;;40.30;40.40;;;;;;4986119;28;20529;-60
2021/06/04 08:26:55;;;;;;;6.40;4.77;;;40.10;41.30;;;;;;4988290;28;20466;-59
2021/06/04 08:29:22;;;;;;;5.57;4.47;;;40.50;41.40;;;;;;4984005;28;20600;-60
2021/06/04 08:31:48;;;;;;;4.30;3.90;;;40.70;40.80;;;;;;4983484;28;21011;-60
2021/06/04 08:34:14;;;;;;;5.60;3.97;;;40.60;40.50;;;;;;4985894;28;20614;-59
2021/06/04 08:36:43;;;;;;;3.23;2.90;;;40.80;40.70;;;;;;4982810;28;20462;-60
2021/06/04 08:39:18;;;;;;;4.13;3.73;;;40.50;39.70;;;;;;4987560;28;20219;-60
2021/06/04 08:41:56;;;;;;;4.30;4.00;;;40.20;40.20;;;;;;4986992;28;20533;-60
2021/06/04 08:44:45;;;;;;;4.90;3.80;;;39.30;41.30;;;;;;4985973;28;20446;-59
2021/06/04 08:47:16;;;;;;;5.43;3.67;;;38.70;41.60;;;;;;4984849;28;21052;-60
2021/06/04 08:50:03;;;;;;;3.70;3.40;;;37.00;45.30;;;;;;4984982;28;20488;-60
2021/06/04 08:53:06;;;;;;;3.83;3.53;;;37.50;44.60;;;;;;4986330;28;20496;-59
2021/06/04 08:55:53;;;;;;;3.83;3.43;;;38.00;43.50;;;;;;4985478;28;20458;-59
2021/06/04 08:58:41;;;;;;;3.80;3.40;;;38.70;42.70;;;;;;4988006;28;20470;-59
2021/06/04 09:01:11;;;;;;;3.90;3.60;;;39.40;41.80;;;;;;4984402;28;20454;-58
2021/06/04 09:03:45;;;;;;;5.07;3.60;;;40.00;40.60;;;;;;4982965;28;20753;-60
2021/06/04 09:06:13;;;;;;;4.50;3.30;;;40.20;40.50;;;;;;4996179;28;20865;-61
2021/06/04 09:08:42;;;;;;;4.10;3.77;;;40.00;40.50;;;;;;4980725;28;20465;-61
2021/06/04 09:11:31;;;;;;;5.63;4.00;;;40.60;40.10;;;;;;4980941;28;20453;-59
2021/06/04 09:13:57;;;;;;;3.80;3.40;;;39.20;40.80;;;;;;4980428;28;20470;-60
2021/06/04 09:16:41;;;;;;;3.13;2.83;;;39.70;40.50;;;;;;4983259;28;20467;-59
2021/06/04 09:19:16;;;;;;;3.97;3.67;;;39.70;40.20;;;;;;4980378;28;20951;-60
2021/06/04 09:21:44;;;;;;;4.73;3.60;;;40.00;40.00;;;;;;4983168;28;20445;-58
2021/06/04 09:24:22;;;;;;;4.97;3.60;;;40.30;39.50;;;;;;4998736;28;20474;-60
2021/06/04 09:26:48;;;;;;;4.23;3.83;;;39.70;40.50;;;;;;4985258;28;20984;-60
2021/06/04 09:29:17;;;;;;;4.00;3.70;;;39.20;40.60;;;;;;4986768;28;20447;-59
2021/06/04 09:31:43;;;;;;;4.00;3.70;;;38.40;42.00;;;;;;4983437;28;20192;-59
2021/06/04 09:34:14;;;;;;;4.87;4.47;;;38.60;42.20;;;;;;4984640;28;20448;-58
2021/06/04 09:36:57;;;;;;;5.70;5.10;;;38.30;42.70;;;;;;4984970;28;20223;-59
2021/06/04 09:39:28;;;;;;;5.37;3.60;;;38.70;42.50;;;;;;4983737;28;20961;-59
2021/06/04 09:42:15;;;;;;;4.10;3.80;;;38.30;43.10;;;;;;4989423;28;20443;-61
2021/06/04 09:44:56;;;;;;;4.30;3.90;;;38.10;43.40;;;;;;4979971;28;20449;-61
2021/06/04 09:47:27;;;;;;;5.10;3.87;;;38.50;43.30;;;;;;4986798;28;20447;-61
2021/06/04 09:49:53;;;;;;;4.17;3.77;;;37.80;43.50;;;;;;4982525;28;20936;-61
2021/06/04 09:52:37;;;;;;;4.40;4.10;;;36.10;46.10;;;;;;4986164;28;20443;-61
2021/06/04 09:55:05;;;;;;;4.53;4.13;;;35.50;47.00;;;;;;4986676;28;20454;-61
2021/06/04 09:57:31;;;;;;;5.37;4.00;;;34.20;49.10;;;;;;4991420;28;21145;-60
2021/06/04 10:00:20;;;;;;;5.47;3.90;;;32.70;52.80;;;;;;4987923;28;20442;-60
2021/06/04 10:02:46;;;;;;;7.17;6.00;;;32.70;53.20;;;;;;4987563;28;20530;-61
2021/06/04 10:05:27;;;;;;;4.53;4.13;;;33.40;53.00;;;;;;4983491;28;21039;-61
2021/06/04 10:08:24;;;;;;;6.17;4.23;;;33.10;53.30;;;;;;4987418;28;20456;-61
2021/06/04 10:11:13;;;;;;;5.80;3.93;;;32.40;54.70;;;;;;4998269;28;20608;-61
2021/06/04 10:14:05;;;;;;;5.47;4.47;;;31.80;55.80;;;;;;5002093;28;20534;-61
2021/06/04 10:17:00;;;;;;;4.53;3.90;;;31.70;56.60;;;;;;4989886;28;20918;-61
2021/06/04 10:19:36;;;;;;;4.20;3.80;;;33.00;54.80;;;;;;4983454;28;20854;-61
2021/06/04 10:22:05;;;;;;;4.60;4.20;;;34.50;53.30;;;;;;4977391;28;20547;-61
2021/06/04 10:24:40;;;;;;;7.30;4.60;;;35.80;50.40;;;;;;4987016;28;20442;-62
2021/06/04 10:27:10;;;;;;;4.13;3.80;;;35.60;49.00;;;;;;4985412;28;20466;-60
2021/06/04 10:29:35;;;;;;;6.33;4.20;;;36.10;48.30;;;;;;4988907;28;20469;-60
2021/06/04 10:32:12;;;;;;;4.20;3.80;;;36.20;47.90;;;;;;4984800;28;20951;-60
2021/06/04 10:34:50;;;;;;;4.70;3.67;;;35.80;48.30;;;;;;4985466;28;20193;-60
2021/06/04 10:37:40;;;;;;;4.00;3.70;;;34.50;50.00;;;;;;4988900;28;20477;-60
2021/06/04 10:40:46;;;;;;;4.80;4.40;;;33.40;52.50;;;;;;4987008;28;20474;-60
2021/06/04 10:43:44;;;;;;;5.93;4.53;;;31.90;54.20;;;;;;4997923;28;20443;-60
2021/06/04 10:46:52;;;;;;;4.83;4.33;;;31.40;56.70;;;;;;4985427;28;20484;-60
2021/06/04 10:49:36;;;;;;;5.17;4.67;;;30.90;57.30;;;;;;4984826;28;20453;-61
2021/06/04 10:52:28;;;;;;;5.60;4.27;;;30.00;59.60;;;;;;4986143;28;20514;-60
2021/06/04 10:55:21;;;;;;;5.07;4.60;;;29.20;61.40;;;;;;4989156;28;20484;-60
2021/06/04 10:58:17;;;;;;;4.60;4.20;;;29.00;63.10;;;;;;4980587;28;20475;-60
2021/06/04 11:01:06;;;;;;;6.13;5.10;;;28.60;65.70;;;;;;4994779;28;20441;-60
2021/06/04 11:03:47;;;;;;;5.30;3.83;;;28.30;66.40;;;;;;4982365;28;20521;-60
2021/06/04 11:06:15;;;;;;;5.60;4.43;;;28.10;69.50;;;;;;4986665;28;20993;-60
2021/06/04 11:09:01;;;;;;;4.13;3.83;;;27.70;71.80;;;;;;4987994;28;20454;-60
2021/06/04 11:11:54;;;;;;;4.00;3.70;;;27.50;72.30;;;;;;4983050;28;20800;-59
2021/06/04 11:14:54;;;;;;;7.83;3.93;;;27.00;74.20;;;;;;4983001;28;20900;-60
2021/06/04 11:17:21;;;;;;;4.10;3.80;;;26.50;77.30;;;;;;4987593;28;20456;-60
2021/06/04 11:20:11;;;;;;;4.83;4.33;;;26.10;79.80;;;;;;4994193;28;20436;-60
2021/06/04 11:23:05;;;;;;;5.43;4.50;;;25.90;82.70;;;;;;4985114;28;20492;-60
2021/06/04 11:25:50;;;;;;;4.43;4.13;;;25.80;82.20;;;;;;4988658;28;20475;-60
2021/06/04 11:28:27;;;;;;;5.40;3.70;;;25.80;81.70;;;;;;4986030;28;20452;-60
2021/06/04 11:30:55;;;;;;;4.77;4.20;;;25.80;82.00;;;;;;5001516;28;20448;-61
2021/06/04 11:33:24;;;;;;;4.73;4.33;;;25.80;81.70;;;;;;4986150;28;20842;-61
2021/06/04 11:36:16;;;;;;;4.53;4.07;;;25.80;84.10;;;;;;4988718;28;20989;-61
2021/06/04 11:38:49;;;;;;;8.60;4.90;;;25.90;85.70;;;;;;4995109;28;20876;-60
2021/06/04 11:41:39;;;;;;;5.93;5.33;;;26.10;85.90;;;;;;4988646;28;20445;-60
2021/06/04 11:44:14;;;;;;;5.00;4.60;;;26.20;86.60;;;;;;4988122;28;20443;-60
2021/06/04 11:46:40;;;;;;;5.87;5.13;;;26.30;87.40;;;;;;4988424;28;20487;-59
2021/06/04 11:49:15;;;;;;;5.47;4.63;;;26.30;86.50;;;;;;4987939;28;20459;-60
2021/06/04 11:51:50;;;;;;;4.53;4.13;;;26.30;85.00;;;;;;4983427;28;20494;-60
2021/06/04 11:54:31;;;;;;;5.97;5.47;;;26.20;86.00;;;;;;4982185;28;20786;-59
2021/06/04 11:56:59;;;;;;;4.70;4.30;;;26.20;87.20;;;;;;4986243;28;20521;-59
2021/06/04 11:59:46;;;;;;;5.73;5.23;;;26.10;88.80;;;;;;4988184;28;20503;-59
2021/06/04 12:02:28;;;;;;;6.30;5.10;;;26.10;89.90;;;;;;4988986;28;20436;-59
2021/06/04 12:05:19;;;;;;;4.17;3.80;;;25.60;90.60;;;;;;4987671;28;20455;-59
2021/06/04 12:08:22;;;;;;;5.43;4.00;;;25.40;91.40;;;;;;4987478;28;20516;-59
2021/06/04 12:10:48;;;;;;;9.63;5.00;;;25.20;92.20;;;;;;4999299;28;20442;-59
2021/06/04 12:13:34;;;;;;;5.67;5.17;;;25.10;92.60;;;;;;4988019;28;20453;-59
2021/06/04 12:16:25;;;;;;;6.10;4.30;;;25.10;93.10;;;;;;4986920;28;20208;-59
2021/06/04 12:19:06;;;;;;;9.60;4.60;;;25.20;93.40;;;;;;4987862;28;20464;-59
2021/06/04 12:21:37;;;;;;;5.07;4.57;;;25.00;93.90;;;;;;4988911;28;20443;-59
2021/06/04 12:24:05;;;;;;;8.43;5.10;;;24.90;94.00;;;;;;4988045;28;21079;-59
2021/06/04 12:26:43;;;;;;;5.27;4.80;;;25.00;94.10;;;;;;4988429;28;20505;-59
2021/06/04 12:29:25;;;;;;;5.63;4.40;;;24.90;94.10;;;;;;4988389;28;20481;-59
2021/06/04 12:31:58;;;;;;;10.07;5.17;;;24.70;94.80;;;;;;4988968;28;20442;-59
2021/06/04 12:34:39;;;;;;;16.27;8.20;;;24.50;97.20;;;;;;4984955;28;20446;-59
2021/06/04 12:37:20;;;;;;;8.43;4.70;;;23.60;99.90;;;;;;4980897;28;20964;-59
2021/06/04 12:40:00;;;;;;;5.85;4.25;;;22.40;99.90;;;;;;4997336;28;20464;-58
2021/06/04 12:42:29;;;;;;;5.05;3.75;;;21.30;99.90;;;;;;4994369;28;20187;-57
2021/06/04 12:45:10;;;;;;;5.60;4.30;;;20.40;99.90;;;;;;4981754;28;20183;-59
2021/06/04 12:48:00;;;;;;;8.68;4.78;;;19.80;99.90;;;;;;4983124;28;20278;-59
2021/06/04 12:50:33;;;;;;;6.55;5.95;;;19.60;99.90;;;;;;4985628;28;20227;-59
2021/06/04 12:53:17;;;;;;;6.60;4.30;;;19.60;99.90;;;;;;4987041;28;20184;-59
2021/06/04 12:55:44;;;;;;;6.00;4.40;;;19.50;99.90;;;;;;4984793;28;20234;-59
2021/06/04 12:58:32;;;;;;;5.68;4.35;;;19.50;99.90;;;;;;4986955;28;20207;-59
2021/06/04 13:01:09;;;;;;;4.80;4.35;;;19.60;99.90;;;;;;4997676;28;20171;-59
2021/06/04 13:03:43;;;;;;;7.10;5.63;;;19.80;99.90;;;;;;4989014;28;20735;-59
2021/06/04 13:06:36;;;;;;;7.05;5.70;;;20.00;99.90;;;;;;4989609;28;20215;-60
2021/06/04 13:09:03;;;;;;;5.38;4.88;;;20.30;99.90;;;;;;4972843;28;20669;-59
2021/06/04 13:11:46;;;;;;;6.60;5.47;;;20.60;99.90;;;;;;4988553;28;20199;-59
2021/06/04 13:14:17;;;;;;;6.28;5.30;;;20.90;99.90;;;;;;4984119;28;20730;-60
2021/06/04 13:16:43;;;;;;;5.65;5.15;;;21.20;99.90;;;;;;4991548;28;20207;-59